Time;durP1;ratioP1;P1;durP2;ratioP2;P2;SDS_P1;SDS_P2;PMS_P1;PMS_P2;Temp;Humidity;BMP_temperature;BMP_pressure;BME280_temperature;BME280_humidity;BME280_pressure;Samples;Min_cycle;Max_cycle;Signal;HPM_P1;HPM_P2
2021/09/16 00:00:02;;;;;;;2.70;1.50;;;;;;;16.50;100.00;95732.56;5100129;28;24800;-79
2021/09/16 00:02:28;;;;;;;3.97;1.50;;;;;;;16.50;100.00;95732.56;5100547;28;24414;-79
2021/09/16 00:04:55;;;;;;;2.80;1.60;;;;;;;16.51;100.00;95732.44;5099648;28;24438;-79
2021/09/16 00:07:21;;;;;;;3.05;1.67;;;;;;;16.54;100.00;95733.94;5099648;28;24417;-79
2021/09/16 00:09:48;;;;;;;3.08;1.80;;;;;;;16.55;100.00;95736.44;5099241;28;24792;-79
2021/09/16 00:12:16;;;;;;;2.28;1.77;;;;;;;16.52;100.00;95734.09;5099076;28;24425;-79
2021/09/16 00:14:42;;;;;;;2.17;1.52;;;;;;;16.54;100.00;95734.81;5099490;28;24789;-79
2021/09/16 00:17:09;;;;;;;2.58;1.70;;;;;;;16.49;100.00;95731.75;5097943;28;25021;-79
2021/09/16 00:19:36;;;;;;;4.10;1.85;;;;;;;16.38;100.00;95734.47;5098461;28;24429;-78
2021/09/16 00:22:02;;;;;;;4.85;1.70;;;;;;;16.25;100.00;95737.31;5098130;28;24429;-79
2021/09/16 00:24:29;;;;;;;2.42;1.70;;;;;;;16.24;100.00;95740.03;5097938;28;24800;-79
2021/09/16 00:26:55;;;;;;;2.38;1.55;;;;;;;16.23;100.00;95743.63;5097838;28;24429;-79
2021/09/16 00:29:23;;;;;;;3.15;1.58;;;;;;;16.24;100.00;95747.88;5098308;28;24410;-79
2021/09/16 00:31:49;;;;;;;2.08;1.80;;;;;;;16.28;100.00;95746.66;5098461;28;24449;-79
2021/09/16 00:34:16;;;;;;;1.77;1.67;;;;;;;16.29;100.00;95749.16;5097756;28;24418;-78
2021/09/16 00:36:42;;;;;;;3.75;1.80;;;;;;;16.36;100.00;95749.47;5096123;28;24990;-79
2021/09/16 00:39:09;;;;;;;3.30;1.70;;;;;;;16.37;100.00;95738.03;5096907;28;24430;-78
2021/09/16 00:41:35;;;;;;;3.17;1.42;;;;;;;16.34;100.00;95746.97;5096229;28;24414;-78
2021/09/16 00:44:02;;;;;;;3.60;1.40;;;;;;;16.33;100.00;95739.28;5096895;28;24418;-78
2021/09/16 00:46:30;;;;;;;1.42;1.33;;;;;;;16.35;100.00;95746.03;5095706;28;24418;-78
2021/09/16 00:48:56;;;;;;;2.22;1.60;;;;;;;16.40;100.00;95748.25;5096187;28;24425;-78
2021/09/16 00:51:23;;;;;;;3.28;1.70;;;;;;;16.40;100.00;95740.41;5096579;28;24433;-79
2021/09/16 00:53:52;;;;;;;2.33;1.33;;;;;;;16.29;100.00;95750.94;5096448;28;24972;-79
2021/09/16 00:56:20;;;;;;;2.67;1.60;;;;;;;16.28;100.00;95742.28;5096599;28;25022;-79
2021/09/16 00:58:50;;;;;;;2.22;1.50;;;;;;;16.34;100.00;95741.75;5097439;28;24414;-79
2021/09/16 01:01:16;;;;;;;2.83;1.75;;;;;;;16.38;100.00;95758.00;5097320;28;24422;-79
2021/09/16 01:03:45;;;;;;;2.25;1.20;;;;;;;16.27;100.00;95758.91;5097025;28;24426;-79
2021/09/16 01:06:12;;;;;;;2.17;1.55;;;;;;;16.25;100.00;95752.19;5095908;28;24426;-79
2021/09/16 01:08:39;;;;;;;3.05;1.40;;;;;;;16.26;100.00;95745.97;5096495;28;24430;-79
2021/09/16 01:11:06;;;;;;;2.60;1.40;;;;;;;16.27;100.00;95753.69;5096818;28;24541;-79
2021/09/16 01:13:32;;;;;;;3.20;1.60;;;;;;;16.23;100.00;95749.69;5096215;28;24429;-79
2021/09/16 01:15:59;;;;;;;2.53;1.42;;;;;;;16.17;100.00;95758.88;5096562;28;24430;-79
2021/09/16 01:18:25;;;;;;;2.53;1.50;;;;;;;16.14;100.00;95756.53;5095954;28;24449;-79
2021/09/16 01:20:54;;;;;;;5.00;1.48;;;;;;;16.23;100.00;95747.06;5096166;28;24418;-79
2021/09/16 01:23:22;;;;;;;1.85;1.27;;;;;;;16.27;100.00;95747.63;5095642;28;24435;-79
2021/09/16 01:25:48;;;;;;;2.20;1.40;;;;;;;16.32;100.00;95745.47;5095606;28;24430;-79
2021/09/16 01:28:15;;;;;;;2.00;1.30;;;;;;;16.33;100.00;95740.09;5095556;28;24770;-79
2021/09/16 01:30:45;;;;;;;2.22;1.60;;;;;;;16.25;100.00;95744.34;5095503;28;24422;-79
2021/09/16 01:33:11;;;;;;;2.05;1.30;;;;;;;16.23;100.00;95744.44;5095672;28;24970;-79
2021/09/16 01:35:38;;;;;;;1.67;1.50;;;;;;;16.27;100.00;95735.38;5095052;28;25144;-79
2021/09/16 01:38:04;;;;;;;3.53;1.90;;;;;;;16.32;100.00;95735.84;5095946;28;24449;-79
2021/09/16 01:40:32;;;;;;;3.03;1.88;;;;;;;16.30;100.00;95735.13;5095688;28;24425;-79
2021/09/16 01:42:59;;;;;;;5.22;1.65;;;;;;;16.33;100.00;95734.88;5095207;28;24430;-79
2021/09/16 01:45:27;;;;;;;2.97;1.60;;;;;;;16.37;100.00;95736.25;5095152;28;24438;-79
2021/09/16 01:47:55;;;;;;;2.30;1.55;;;;;;;16.39;100.00;95743.97;5094745;28;24422;-79
2021/09/16 01:50:24;;;;;;;3.33;1.40;;;;;;;16.43;100.00;95740.13;5095353;28;24434;-79
2021/09/16 01:52:51;;;;;;;3.50;1.50;;;;;;;16.33;100.00;95729.63;5095384;28;24772;-79
2021/09/16 01:55:19;;;;;;;1.85;1.30;;;;;;;16.35;100.00;95737.34;5094431;28;24808;-79
2021/09/16 01:57:47;;;;;;;2.65;1.80;;;;;;;16.32;100.00;95725.38;5095415;28;24442;-79
2021/09/16 02:00:14;;;;;;;3.72;1.35;;;;;;;16.33;100.00;95720.97;5094898;28;24780;-79
2021/09/16 02:02:41;;;;;;;5.68;1.80;;;;;;;16.30;100.00;95721.22;5095198;28;24418;-79
2021/09/16 02:05:09;;;;;;;2.60;1.60;;;;;;;16.23;100.00;95722.72;5095108;28;24434;-79
2021/09/16 02:07:35;;;;;;;1.55;1.27;;;;;;;16.29;100.00;95722.19;5095773;28;24425;-79
2021/09/16 02:10:02;;;;;;;2.17;1.33;;;;;;;16.24;100.00;95722.59;5095014;28;24423;-79
2021/09/16 02:12:29;;;;;;;2.45;1.40;;;;;;;16.25;100.00;95726.03;5095237;28;24430;-79
2021/09/16 02:14:57;;;;;;;2.90;1.58;;;;;;;16.18;100.00;95720.50;5095168;28;24438;-79
2021/09/16 02:17:23;;;;;;;2.55;1.42;;;;;;;16.12;100.00;95716.63;5095079;28;24450;-79
2021/09/16 02:19:50;;;;;;;2.38;1.58;;;;;;;16.15;100.00;95708.53;5095221;28;24425;-79
2021/09/16 02:22:16;;;;;;;3.17;1.60;;;;;;;16.18;100.00;95702.22;5095299;28;24820;-79
2021/09/16 02:24:43;;;;;;;2.58;1.40;;;;;;;16.12;100.00;95700.13;5094679;28;24427;-79
2021/09/16 02:27:09;;;;;;;3.85;1.60;;;;;;;16.13;100.00;95699.16;5094396;28;24414;-79
2021/09/16 02:29:36;;;;;;;2.47;1.30;;;;;;;16.07;100.00;95710.16;5095017;28;24429;-79
2021/09/16 02:32:04;;;;;;;1.88;1.30;;;;;;;16.08;100.00;95706.56;5094297;28;24993;-79
2021/09/16 02:34:31;;;;;;;2.60;1.50;;;;;;;16.05;100.00;95697.22;5100729;28;24792;-79
2021/09/16 02:36:57;;;;;;;3.10;1.48;;;;;;;16.06;100.00;95705.91;5110192;28;24422;-79
2021/09/16 02:39:24;;;;;;;2.50;1.52;;;;;;;16.01;100.00;95708.88;5111238;28;24414;-79
2021/09/16 02:41:50;;;;;;;2.37;1.30;;;;;;;16.03;100.00;95706.97;5109114;28;24422;-79
2021/09/16 02:44:17;;;;;;;2.78;1.50;;;;;;;15.93;100.00;95712.16;5103375;28;24430;-79
2021/09/16 02:46:43;;;;;;;2.30;1.73;;;;;;;15.87;100.00;95704.84;5102130;28;24422;-79
2021/09/16 02:49:11;;;;;;;2.75;1.58;;;;;;;15.85;100.00;95701.53;5101916;28;24970;-79
2021/09/16 02:51:37;;;;;;;2.25;1.50;;;;;;;15.86;100.00;95705.78;5101945;28;24425;-79
2021/09/16 02:54:04;;;;;;;1.98;1.45;;;;;;;15.93;100.00;95711.31;5101275;28;24418;-79
2021/09/16 02:56:30;;;;;;;2.10;1.23;;;;;;;15.91;100.00;95701.03;5101051;28;24429;-79
2021/09/16 02:58:57;;;;;;;1.98;1.50;;;;;;;15.97;100.00;95705.69;5100977;28;24983;-79
2021/09/16 03:01:23;;;;;;;10.45;1.50;;;;;;;16.05;100.00;95705.03;5100759;28;24452;-79
2021/09/16 03:03:50;;;;;;;1.80;1.30;;;;;;;16.10;100.00;95708.09;5100534;28;24425;-79
2021/09/16 03:06:18;;;;;;;4.00;1.50;;;;;;;16.05;100.00;95699.00;5099958;28;24433;-79
2021/09/16 03:08:44;;;;;;;5.83;1.20;;;;;;;16.09;100.00;95696.00;5100178;28;24972;-79
2021/09/16 03:11:10;;;;;;;2.90;1.55;;;;;;;16.13;100.00;95696.53;5099771;28;24426;-79
2021/09/16 03:13:37;;;;;;;2.42;1.40;;;;;;;16.13;100.00;95700.00;5102569;22;24466;-75
2021/09/16 03:16:04;;;;;;;2.15;1.38;;;;;;;16.15;100.00;95689.41;5053192;28;24419;-75
2021/09/16 03:18:30;;;;;;;2.53;1.60;;;;;;;16.19;100.00;95688.19;5053312;28;24449;-75
2021/09/16 03:20:57;;;;;;;3.75;1.30;;;;;;;16.23;100.00;95683.53;5053056;28;24956;-74
2021/09/16 03:23:25;;;;;;;3.33;1.57;;;;;;;16.20;100.00;95677.63;5053050;28;24427;-75
2021/09/16 03:25:52;;;;;;;2.15;1.58;;;;;;;16.17;100.00;95674.44;5052721;28;24419;-75
2021/09/16 03:28:19;;;;;;;2.78;1.70;;;;;;;16.19;100.00;95681.16;5052799;28;24812;-74
2021/09/16 03:30:45;;;;;;;2.58;1.42;;;;;;;16.18;100.00;95686.53;5053049;28;24427;-74
2021/09/16 03:33:12;;;;;;;2.13;1.40;;;;;;;16.18;100.00;95686.53;5052682;28;24975;-75
2021/09/16 03:35:39;;;;;;;3.10;1.27;;;;;;;16.17;100.00;95690.13;5052641;28;24474;-74
2021/09/16 03:38:06;;;;;;;2.80;1.40;;;;;;;16.21;100.00;95689.72;5052582;28;24446;-76
2021/09/16 03:40:34;;;;;;;2.00;1.50;;;;;;;16.23;100.00;95693.97;5044180;28;24443;-75
2021/09/16 03:43:00;;;;;;;5.13;1.48;;;;;;;16.25;100.00;95689.47;5052400;28;24502;-75
2021/09/16 03:45:27;;;;;;;2.60;1.65;;;;;;;16.26;100.00;95691.09;5052264;28;24832;-75
2021/09/16 03:47:53;;;;;;;1.48;1.38;;;;;;;16.16;100.00;95698.91;5052774;28;24431;-75
2021/09/16 03:50:20;;;;;;;2.70;1.58;;;;;;;16.18;100.00;95697.00;5052299;28;24984;-75
2021/09/16 03:52:46;;;;;;;1.83;1.40;;;;;;;16.05;100.00;95701.59;5052813;28;24431;-75
2021/09/16 03:55:13;;;;;;;2.95;1.60;;;;;;;16.01;100.00;95702.84;5051796;28;24439;-74
2021/09/16 03:57:41;;;;;;;1.70;1.40;;;;;;;16.06;100.00;95701.50;5052376;28;24455;-75
2021/09/16 04:00:08;;;;;;;2.63;1.58;;;;;;;16.03;100.00;95696.53;5052435;28;24423;-75
2021/09/16 04:02:35;;;;;;;3.13;1.42;;;;;;;16.07;100.00;95694.47;5052374;28;24421;-75
2021/09/16 04:05:02;;;;;;;2.70;1.50;;;;;;;16.08;100.00;95698.75;5051970;28;24438;-74
2021/09/16 04:07:28;;;;;;;3.05;1.50;;;;;;;16.07;100.00;95697.09;5051886;28;24412;-76
2021/09/16 04:09:55;;;;;;;2.28;1.30;;;;;;;16.00;100.00;95704.63;5051923;28;24427;-76
2021/09/16 04:12:21;;;;;;;2.17;1.27;;;;;;;15.98;100.00;95698.69;5051878;28;25102;-75
2021/09/16 04:14:49;;;;;;;2.60;1.38;;;;;;;15.99;100.00;95695.13;5051802;28;24964;-74
2021/09/16 04:17:16;;;;;;;2.43;1.67;;;;;;;16.04;100.00;95695.56;5051588;28;24944;-75
2021/09/16 04:19:42;;;;;;;3.00;1.50;;;;;;;16.02;100.00;95699.25;5051943;28;24418;-75
2021/09/16 04:22:09;;;;;;;2.03;1.40;;;;;;;16.05;100.00;95699.81;5051857;28;24426;-75
2021/09/16 04:24:35;;;;;;;2.60;1.60;;;;;;;16.02;100.00;95694.88;5047862;28;24992;-75
2021/09/16 04:27:02;;;;;;;4.60;1.90;;;;;;;16.04;100.00;95692.13;5051421;28;24435;-75
2021/09/16 04:29:28;;;;;;;1.85;1.27;;;;;;;16.06;100.00;95687.63;5051805;28;24431;-75
2021/09/16 04:31:56;;;;;;;5.30;1.88;;;;;;;16.01;100.00;95695.00;5049077;28;24848;-75
2021/09/16 04:34:23;;;;;;;3.00;1.50;;;;;;;15.99;100.00;95697.75;5051095;28;24456;-75
2021/09/16 04:36:49;;;;;;;6.60;1.70;;;;;;;15.93;100.00;95695.66;5042904;28;25004;-75
2021/09/16 04:39:16;;;;;;;3.63;1.70;;;;;;;15.93;100.00;95693.03;5051714;28;24797;-75
2021/09/16 04:41:42;;;;;;;2.60;1.67;;;;;;;15.91;100.00;95702.81;5051696;28;24419;-75
2021/09/16 04:44:09;;;;;;;2.70;1.60;;;;;;;15.92;100.00;95699.22;5051701;28;24427;-74
2021/09/16 04:46:35;;;;;;;2.53;1.80;;;;;;;15.89;100.00;95699.50;5051168;28;24434;-74
2021/09/16 04:49:03;;;;;;;2.25;1.40;;;;;;;15.90;100.00;95696.72;5051250;28;24987;-74
2021/09/16 04:51:30;;;;;;;3.60;1.30;;;;;;;15.87;100.00;95702.25;5051105;28;24436;-74
2021/09/16 04:53:56;;;;;;;3.10;1.67;;;;;;;15.89;100.00;95704.72;5044341;28;24829;-75
2021/09/16 04:56:23;;;;;;;3.03;1.77;;;;;;;15.94;100.00;95698.16;5048513;28;24427;-75
2021/09/16 04:58:49;;;;;;;3.15;1.60;;;;;;;15.91;100.00;95698.41;5050202;28;24455;-74
2021/09/16 05:01:15;;;;;;;2.70;1.55;;;;;;;15.90;100.00;95704.56;5051015;28;24426;-75
2021/09/16 05:03:42;;;;;;;1.90;1.60;;;;;;;15.89;100.00;95702.91;5051114;28;24420;-76
2021/09/16 05:06:10;;;;;;;2.90;1.45;;;;;;;15.93;100.00;95704.31;5050604;28;24434;-76
2021/09/16 05:08:37;;;;;;;3.83;1.50;;;;;;;15.96;100.00;95704.06;5051315;28;24962;-76
2021/09/16 05:11:03;;;;;;;2.53;1.55;;;;;;;16.00;100.00;95707.22;5051341;28;24419;-76
2021/09/16 05:13:30;;;;;;;6.13;1.70;;;;;;;16.04;100.00;95703.41;5050912;28;24419;-74
2021/09/16 05:15:56;;;;;;;2.53;1.58;;;;;;;16.03;100.00;95708.75;5050898;28;24422;-74
2021/09/16 05:18:23;;;;;;;3.25;1.50;;;;;;;16.00;100.00;95709.03;5050681;28;24450;-74
2021/09/16 05:20:49;;;;;;;3.08;1.60;;;;;;;16.03;100.00;95703.53;5050844;28;24436;-75
2021/09/16 05:23:17;;;;;;;2.80;1.50;;;;;;;16.06;100.00;95709.34;5050582;28;24438;-75
2021/09/16 05:25:43;;;;;;;2.20;1.40;;;;;;;16.07;100.00;95697.91;5050440;28;24959;-75
2021/09/16 05:28:10;;;;;;;2.25;1.52;;;;;;;16.06;100.00;95701.50;5050643;28;24414;-75
2021/09/16 05:30:36;;;;;;;1.92;1.50;;;;;;;16.07;100.00;95702.31;5050142;28;24427;-75
2021/09/16 05:33:07;;;;;;;2.97;1.48;;;;;;;16.00;100.00;95707.22;5050284;28;24426;-75
2021/09/16 05:35:33;;;;;;;2.33;1.52;;;;;;;16.00;100.00;95704.63;5050623;28;24522;-75
2021/09/16 05:38:00;;;;;;;3.50;1.90;;;;;;;16.05;100.00;95706.84;5050564;28;24824;-75
2021/09/16 05:40:28;;;;;;;3.80;1.67;;;;;;;15.99;100.00;95707.38;5050547;28;24431;-74
2021/09/16 05:42:54;;;;;;;2.13;1.35;;;;;;;15.97;100.00;95707.50;5050415;28;24812;-75
2021/09/16 05:45:21;;;;;;;1.88;1.40;;;;;;;16.04;100.00;95710.41;5049996;28;24427;-75
2021/09/16 05:47:47;;;;;;;3.40;1.48;;;;;;;16.06;100.00;95706.72;5049839;28;24983;-75
2021/09/16 05:50:14;;;;;;;2.00;1.30;;;;;;;16.10;100.00;95713.34;5050351;28;24777;-75
2021/09/16 05:52:41;;;;;;;3.80;2.00;;;;;;;16.04;100.00;95699.97;5048520;28;24415;-74
2021/09/16 05:55:09;;;;;;;4.53;1.60;;;;;;;16.00;100.00;95696.78;5030251;28;24424;-75
2021/09/16 05:57:37;;;;;;;2.92;1.65;;;;;;;16.07;100.00;95704.94;5030366;28;24447;-75
2021/09/16 06:00:06;;;;;;;2.50;1.42;;;;;;;16.14;100.00;95712.09;5037332;28;24458;-75
2021/09/16 06:02:33;;;;;;;2.80;1.42;;;;;;;16.17;100.00;95714.47;5050022;28;24423;-74
2021/09/16 06:04:59;;;;;;;2.97;1.57;;;;;;;16.18;100.00;95717.91;5050228;28;24482;-74
2021/09/16 06:07:26;;;;;;;3.90;1.67;;;;;;;16.17;100.00;95717.06;5039103;28;24435;-74
2021/09/16 06:09:52;;;;;;;3.17;1.83;;;;;;;16.24;100.00;95716.53;5033018;28;24431;-74
2021/09/16 06:12:19;;;;;;;2.13;1.65;;;;;;;16.16;100.00;95720.63;5034212;28;24435;-74
2021/09/16 06:14:47;;;;;;;2.10;1.60;;;;;;;16.17;100.00;95717.06;5034125;28;24511;-74
2021/09/16 06:17:13;;;;;;;3.17;1.67;;;;;;;16.16;100.00;95727.63;5047302;28;25072;-73
2021/09/16 06:19:40;;;;;;;5.72;1.92;;;;;;;16.10;100.00;95718.56;5054094;28;24462;-74
2021/09/16 06:22:06;;;;;;;2.07;1.60;;;;;;;16.11;100.00;95725.44;5054084;28;24856;-74
2021/09/16 06:24:33;;;;;;;1.88;1.48;;;;;;;16.15;100.00;95720.78;5053523;28;24439;-73
2021/09/16 06:26:59;;;;;;;3.65;1.88;;;;;;;16.17;100.00;95724.09;5053680;28;24427;-73
2021/09/16 06:29:26;;;;;;;4.05;2.00;;;;;;;16.14;100.00;95729.56;5053720;28;24655;-73
2021/09/16 06:31:53;;;;;;;3.13;1.85;;;;;;;16.13;100.00;95739.19;5054120;28;24866;-73
2021/09/16 06:34:20;;;;;;;3.10;1.92;;;;;;;16.08;100.00;95730.91;5052962;28;24447;-70
2021/09/16 06:36:46;;;;;;;2.22;1.60;;;;;;;16.15;100.00;95733.84;5053784;28;24435;-73
2021/09/16 06:39:13;;;;;;;3.30;1.70;;;;;;;16.21;100.00;95736.75;5053493;28;24458;-72
2021/09/16 06:41:39;;;;;;;3.78;1.67;;;;;;;16.23;100.00;95727.94;5054469;28;24431;-73
2021/09/16 06:44:06;;;;;;;2.25;1.70;;;;;;;16.24;100.00;95734.81;5053464;28;24434;-73
2021/09/16 06:46:32;;;;;;;6.90;1.90;;;;;;;16.23;100.00;95736.63;5053425;28;24427;-73
2021/09/16 06:49:00;;;;;;;5.10;2.00;;;;;;;16.08;100.00;95741.38;5053811;28;24414;-72
2021/09/16 06:51:27;;;;;;;3.47;1.83;;;;;;;16.13;100.00;95744.44;5053764;28;24411;-73
2021/09/16 06:53:54;;;;;;;3.63;1.77;;;;;;;16.14;100.00;95742.63;5053641;28;24447;-75
2021/09/16 06:56:21;;;;;;;3.03;1.80;;;;;;;16.10;100.00;95756.94;5053414;28;24781;-73
2021/09/16 06:58:47;;;;;;;3.53;1.80;;;;;;;16.10;100.00;95746.47;5053395;28;25003;-72
2021/09/16 07:01:14;;;;;;;3.35;2.10;;;;;;;16.09;100.00;95753.50;5053773;28;24442;-72
2021/09/16 07:03:41;;;;;;;10.48;2.20;;;;;;;15.96;100.00;95753.69;5053328;28;24438;-74
2021/09/16 07:06:09;;;;;;;3.40;2.13;;;;;;;15.88;100.00;95756.13;5053603;28;24430;-74
2021/09/16 07:08:35;;;;;;;3.72;1.83;;;;;;;15.91;100.00;95765.50;5054168;28;24435;-73
2021/09/16 07:11:02;;;;;;;2.55;1.50;;;;;;;15.91;100.00;95766.31;5053489;28;24987;-73
2021/09/16 07:13:28;;;;;;;2.05;1.30;;;;;;;15.89;100.00;95770.00;5053601;28;24661;-74
2021/09/16 07:15:55;;;;;;;1.60;1.00;;;;;;;15.95;100.00;95770.31;5052209;28;24438;-73
2021/09/16 07:18:21;;;;;;;1.98;1.30;;;;;;;16.03;100.00;95780.13;5053580;28;24423;-73
2021/09/16 07:20:47;;;;;;;3.72;1.73;;;;;;;16.05;100.00;95782.59;5052896;28;24438;-74
2021/09/16 07:23:15;;;;;;;3.45;1.52;;;;;;;16.12;100.00;95781.13;5052882;28;25070;-73
2021/09/16 07:25:42;;;;;;;1.60;1.50;;;;;;;15.97;100.00;95788.47;5052972;28;24435;-75
2021/09/16 07:28:08;;;;;;;1.65;1.23;;;;;;;15.69;100.00;95792.56;5053459;28;24443;-74
2021/09/16 07:30:35;;;;;;;1.85;1.45;;;;;;;15.59;100.00;95800.28;5049970;28;24972;-76
2021/09/16 07:33:01;;;;;;;1.25;1.15;;;;;;;15.56;100.00;95799.72;5033508;28;24435;-75
2021/09/16 07:35:28;;;;;;;1.20;0.93;;;;;;;15.52;100.00;95795.69;5034156;28;24440;-74
2021/09/16 07:37:54;;;;;;;0.75;0.70;;;;;;;15.66;100.00;95803.25;5033550;28;24416;-74
2021/09/16 07:40:22;;;;;;;1.10;0.60;;;;;;;15.72;100.00;95810.56;5033496;28;24451;-75
2021/09/16 07:42:49;;;;;;;0.40;0.40;;;;;;;15.76;100.00;95808.53;5033452;28;24432;-75
2021/09/16 07:45:16;;;;;;;0.88;0.60;;;;;;;15.64;100.00;95813.78;5046405;28;24493;-75
2021/09/16 07:47:42;;;;;;;1.23;0.60;;;;;;;15.83;100.00;95820.13;5053425;28;24419;-73
2021/09/16 07:50:10;;;;;;;0.68;0.40;;;;;;;15.73;100.00;95823.50;5053136;28;24426;-74
2021/09/16 07:52:37;;;;;;;1.60;0.40;;;;;;;15.76;100.00;95821.59;5052442;28;24979;-75
2021/09/16 07:55:05;;;;;;;0.73;0.30;;;;;;;15.72;100.00;95824.47;5053077;28;24432;-74
2021/09/16 07:57:33;;;;;;;0.95;0.50;;;;;;;15.61;100.00;95832.31;5052913;28;24415;-74
2021/09/16 07:59:59;;;;;;;0.77;0.40;;;;;;;15.63;100.00;95826.97;5052677;28;24813;-74
2021/09/16 08:02:26;;;;;;;0.38;0.28;;;;;;;15.68;100.00;95835.28;5053082;28;24920;-74
2021/09/16 08:04:52;;;;;;;2.13;0.40;;;;;;;15.67;100.00;95844.88;5052788;28;24427;-74
2021/09/16 08:07:19;;;;;;;1.73;0.28;;;;;;;15.62;100.00;95843.59;5052318;28;24800;-74
2021/09/16 08:09:45;;;;;;;0.57;0.30;;;;;;;15.56;100.00;95842.31;5052394;28;24995;-74
2021/09/16 08:12:11;;;;;;;0.90;0.40;;;;;;;15.49;100.00;95841.97;5052926;28;24793;-74
2021/09/16 08:14:39;;;;;;;0.80;0.50;;;;;;;15.46;100.00;95844.00;5052479;28;24431;-75
2021/09/16 08:17:06;;;;;;;0.90;0.50;;;;;;;15.53;100.00;95841.72;5052049;28;24442;-74
2021/09/16 08:19:38;;;;;;;1.05;0.40;;;;;;;15.35;100.00;95842.28;5052728;28;24443;-74
2021/09/16 08:22:05;;;;;;;0.98;0.50;;;;;;;15.35;100.00;95851.84;5052232;28;24533;-75
2021/09/16 08:24:31;;;;;;;1.40;0.40;;;;;;;15.45;100.00;95855.41;5052063;28;24455;-75
2021/09/16 08:26:58;;;;;;;0.82;0.60;;;;;;;15.33;100.00;95852.00;5052070;28;24430;-75
2021/09/16 08:29:24;;;;;;;0.70;0.40;;;;;;;15.22;100.00;95852.03;5052555;28;24426;-74
2021/09/16 08:31:52;;;;;;;0.77;0.30;;;;;;;15.18;100.00;95867.09;5052120;28;24415;-73
2021/09/16 08:34:19;;;;;;;2.80;0.55;;;;;;;15.04;100.00;95866.53;5051277;28;24428;-73
2021/09/16 08:36:45;;;;;;;0.77;0.70;;;;;;;14.92;100.00;95871.75;5052052;28;25289;-73
2021/09/16 08:39:11;;;;;;;1.73;0.60;;;;;;;14.96;100.00;95878.41;5052178;28;24443;-74
2021/09/16 08:41:38;;;;;;;1.75;1.00;;;;;;;15.06;100.00;95878.50;5052084;28;24432;-74
2021/09/16 08:44:05;;;;;;;1.73;1.20;;;;;;;15.02;100.00;95879.72;5241035;22;24474;-73
2021/09/16 08:46:31;;;;;;;1.90;1.00;;;;;;;14.97;100.00;95882.66;5052347;28;24426;-72
2021/09/16 08:48:59;;;;;;;3.67;1.00;;;;;;;14.72;100.00;95875.09;5047936;28;24510;-73
2021/09/16 08:51:27;;;;;;;1.50;1.40;;;;;;;14.67;100.00;95878.06;5051644;28;24446;-73
2021/09/16 08:53:55;;;;;;;1.90;1.80;;;;;;;14.59;100.00;95880.44;5051243;28;24434;-72
2021/09/16 08:56:22;;;;;;;3.40;2.00;;;;;;;14.59;100.00;95883.03;5051232;28;24435;-72
2021/09/16 08:58:50;;;;;;;3.60;2.35;;;;;;;14.52;100.00;95887.06;5051183;28;24435;-73
2021/09/16 09:01:18;;;;;;;2.70;2.50;;;;;;;14.53;100.00;95880.88;5051384;28;24416;-74
2021/09/16 09:03:45;;;;;;;3.70;3.17;;;;;;;14.58;100.00;95884.00;5051037;28;24438;-74
2021/09/16 09:06:34;;;;;;;4.45;3.97;;;;;;;14.56;100.00;95892.88;5051489;28;24816;-74
2021/09/16 09:09:09;;;;;;;5.45;4.95;;;;;;;14.51;100.00;95898.44;5051862;28;24473;-75
2021/09/16 09:11:56;;;;;;;5.70;5.20;;;;;;;14.50;100.00;95900.22;5051680;28;24431;-75
2021/09/16 09:14:25;;;;;;;6.32;5.68;;;;;;;14.49;100.00;95895.06;5066110;22;24486;-76
2021/09/16 09:16:52;;;;;;;5.63;5.13;;;;;;;14.50;100.00;95895.00;5046259;28;24515;-77
2021/09/16 09:19:21;;;;;;;5.88;5.35;;;;;;;14.51;100.00;95898.44;5047579;28;24455;-77
2021/09/16 09:21:49;;;;;;;7.40;6.70;;;;;;;14.36;100.00;95910.00;5042231;28;24439;-77
2021/09/16 09:24:33;;;;;;;7.05;6.35;;;;;;;14.26;100.00;95905.47;5044046;28;24438;-76
2021/09/16 09:27:02;;;;;;;8.93;6.68;;;;;;;14.35;100.00;95901.34;5012274;28;24420;-77
2021/09/16 09:29:30;;;;;;;7.43;6.72;;;;;;;14.63;100.00;95907.91;5025243;28;24434;-77
2021/09/16 09:31:59;;;;;;;7.50;6.60;;;;;;;14.75;100.00;95906.13;5033344;28;25042;-77
2021/09/16 09:34:28;;;;;;;6.78;6.18;;;;;;;14.74;100.00;95901.88;5031039;28;24459;-76
2021/09/16 09:37:09;;;;;;;8.25;7.45;;;;;;;15.25;100.00;95899.56;5035742;28;24535;-77
2021/09/16 09:39:37;;;;;;;8.17;7.07;;;;;;;15.18;100.00;95914.06;5035158;28;24447;-78
2021/09/16 09:42:22;;;;;;;8.00;7.18;;;;;;;15.12;100.00;95913.69;5035499;28;24427;-77
2021/09/16 09:44:53;;;;;;;7.20;6.50;;;;;;;15.17;100.00;95906.38;5036578;28;24562;-76
2021/09/16 09:47:38;;;;;;;10.75;7.68;;;;;;;15.38;100.00;95911.63;5034611;28;24432;-77
2021/09/16 09:50:06;;;;;;;9.95;7.90;;;;;;;15.41;100.00;95904.41;5033966;28;24790;-78
2021/09/16 09:52:34;;;;;;;10.88;8.18;;;;;;;15.51;100.00;95906.28;5036788;28;24421;-79
2021/09/16 09:55:12;;;;;;;8.90;8.10;;;;;;;15.49;100.00;95909.00;5046352;28;21210;-77
2021/09/16 09:57:38;;;;;;;11.85;8.95;;;;;;;15.80;100.00;95911.81;5040520;28;24408;-80
2021/09/16 10:00:08;;;;;;;9.57;8.60;;;;;;;15.72;100.00;95912.41;5035581;28;24454;-79
2021/09/16 10:02:43;;;;;;;11.13;10.03;;;;;;;15.66;100.00;95916.34;5030670;28;24436;-82
2021/09/16 10:05:20;;;;;;;13.25;10.50;;;;;;;15.65;100.00;95909.47;5036080;28;24463;-81
2021/09/16 10:07:49;;;;;;;13.82;11.18;;;;;;;15.56;100.00;95915.38;5034734;28;24488;-82
2021/09/16 10:10:16;;;;;;;14.05;11.70;;;;;;;15.54;100.00;95925.16;5034487;28;24794;-80
2021/09/16 10:12:45;;;;;;;15.75;12.40;;;;;;;15.48;100.00;95928.22;5034636;28;24443;-82
2021/09/16 10:15:16;;;;;;;16.35;13.05;;;;;;;15.16;100.00;95925.56;5033887;28;24785;-80
2021/09/16 10:17:43;;;;;;;18.45;14.23;;;;;;;14.91;100.00;95926.66;5034958;28;24436;-81
2021/09/16 10:20:12;;;;;;;17.02;15.15;;;;;;;15.05;100.00;95922.97;5034490;28;24805;-80
2021/09/16 10:22:41;;;;;;;20.83;16.35;;;;;;;15.18;100.00;95927.09;5034788;28;24439;-82
2021/09/16 10:25:13;;;;;;;18.98;16.90;;;;;;;15.23;100.00;95921.50;5035518;28;24678;-80
2021/09/16 10:27:41;;;;;;;19.52;17.42;;;;;;;15.34;100.00;95918.06;5038649;28;24443;-78
2021/09/16 10:30:33;;;;;;;20.45;18.15;;;;;;;15.33;100.00;95906.78;5040721;28;24412;-77
2021/09/16 10:33:02;;;;;;;24.05;17.58;;;;;;;15.33;100.00;95917.22;5048811;28;24416;-77
2021/09/16 10:35:29;;;;;;;22.17;17.10;;;;;;;15.30;100.00;95912.25;5048111;28;24471;-77
2021/09/16 10:37:55;;;;;;;19.65;16.85;;;;;;;15.31;100.00;95923.50;5046799;28;24420;-78
2021/09/16 10:40:33;;;;;;;19.92;17.35;;;;;;;14.94;100.00;95914.22;5044862;28;24446;-79
2021/09/16 10:43:01;;;;;;;22.30;17.80;;;;;;;14.87;100.00;95907.81;5043501;28;24957;-80
2021/09/16 10:45:30;;;;;;;20.33;18.15;;;;;;;15.05;100.00;95921.16;5041953;28;24427;-79
2021/09/16 10:48:28;;;;;;;22.20;19.80;;;;;;;14.99;100.00;95922.50;5041378;28;24945;-79
2021/09/16 10:50:57;;;;;;;19.75;17.85;;;;;;;14.96;100.00;95927.94;5018652;28;24420;-79
2021/09/16 10:53:37;;;;;;;19.37;17.43;;;;;;;14.94;100.00;95929.00;5034692;28;24440;-79
2021/09/16 10:56:07;;;;;;;19.85;17.73;;;;;;;15.13;100.00;95926.66;5039518;28;24496;-79
2021/09/16 10:58:34;;;;;;;19.77;17.90;;;;;;;14.91;100.00;95926.66;5042294;28;24418;-79
2021/09/16 11:01:00;;;;;;;19.02;17.02;;;;;;;15.07;100.00;95921.91;5042343;28;24774;-79
2021/09/16 11:03:27;;;;;;;20.52;18.48;;;;;;;15.04;100.00;95919.53;5041917;28;24443;-78
2021/09/16 11:05:58;;;;;;;20.65;18.30;;;;;;;14.95;100.00;95923.69;5041507;28;24427;-79
2021/09/16 11:08:54;;;;;;;24.27;20.05;;;;;;;14.86;100.00;95927.00;5041086;28;24455;-74
2021/09/16 11:11:22;;;;;;;20.63;16.88;;;;;;;14.87;100.00;95927.81;5039600;28;24427;-78
2021/09/16 11:13:53;;;;;;;19.02;17.02;;;;;;;15.01;100.00;95919.75;5039661;28;24431;-79
2021/09/16 11:16:25;;;;;;;18.55;16.58;;;;;;;14.96;100.00;95924.50;5037750;28;24432;-77
2021/09/16 11:19:00;;;;;;;17.33;15.73;;;;;;;14.94;100.00;95926.41;5036851;28;24431;-76
2021/09/16 11:21:26;;;;;;;15.50;13.90;;;;;;;15.18;100.00;95923.66;5036025;28;24459;-78
2021/09/16 11:23:53;;;;;;;18.30;16.40;;;;;;;15.13;100.00;95928.41;5035945;28;24436;-78
2021/09/16 11:26:23;;;;;;;14.90;13.50;;;;;;;15.31;100.00;95926.94;5036016;28;24436;-77